Time;durP1;ratioP1;P1;durP2;ratioP2;P2;SDS_P1;SDS_P2;PMS_P1;PMS_P2;Temp;Humidity;BMP_temperature;BMP_pressure;BME280_temperature;BME280_humidity;BME280_pressure;Samples;Min_cycle;Max_cycle;Signal;HPM_P1;HPM_P2
2022/04/24 00:02:44;;;;;;;0.30;0.30;;;;;;;;;;5026912;28;20683;-57
2022/04/24 00:05:32;;;;;;;0.20;0.20;;;;;;;;;;5028185;28;20523;-57
2022/04/24 00:08:19;;;;;;;0.30;0.30;;;;;;;;;;5034080;28;20216;-57
2022/04/24 00:11:06;;;;;;;0.37;0.37;;;;;;;;;;5028021;28;20618;-58
2022/04/24 00:13:53;;;;;;;0.20;0.20;;;;;;;;;;5026911;28;20344;-56
2022/04/24 00:16:41;;;;;;;0.37;0.37;;;;;;;;;;5028443;28;20294;-56
2022/04/24 00:19:28;;;;;;;0.33;0.30;;;;;;;;;;5028513;28;20210;-57
2022/04/24 00:22:16;;;;;;;0.30;0.30;;;;;;;;;;5036546;28;20647;-57
2022/04/24 00:25:04;;;;;;;0.30;0.30;;;;;;;;;;5034204;28;20281;-57
2022/04/24 00:27:51;;;;;;;0.17;0.17;;;;;;;;;;5030241;28;20229;-57
2022/04/24 00:30:38;;;;;;;0.30;0.30;;;;;;;;;;5032164;28;20207;-56
2022/04/24 00:33:25;;;;;;;0.23;0.23;;;;;;;;;;5034017;28;20261;-57
2022/04/24 00:36:12;;;;;;;0.27;0.27;;;;;;;;;;5035530;28;20283;-57
2022/04/24 00:39:00;;;;;;;0.30;0.20;;;;;;;;;;5035359;28;20241;-56
2022/04/24 00:41:48;;;;;;;0.20;0.20;;;;;;;;;;5030964;28;20284;-57
2022/04/24 00:44:35;;;;;;;0.40;0.40;;;;;;;;;;5031636;28;20206;-58
2022/04/24 00:47:23;;;;;;;0.37;0.37;;;;;;;;;;5054941;28;20217;-56
2022/04/24 00:50:10;;;;;;;0.20;0.20;;;;;;;;;;5055968;28;20219;-57
2022/04/24 00:52:57;;;;;;;0.30;0.30;;;;;;;;;;5050438;28;20223;-58
2022/04/24 00:55:46;;;;;;;0.27;0.27;;;;;;;;;;5052094;28;20299;-57
2022/04/24 00:58:33;;;;;;;0.23;0.23;;;;;;;;;;5051321;28;20620;-57
2022/04/24 01:01:20;;;;;;;0.30;0.30;;;;;;;;;;5059722;28;20290;-57
2022/04/24 01:04:09;;;;;;;0.23;0.23;;;;;;;;;;5052801;28;20426;-57
2022/04/24 01:06:56;;;;;;;0.30;0.30;;;;;;;;;;5050849;28;20453;-56
2022/04/24 01:09:43;;;;;;;0.20;0.20;;;;;;;;;;5052183;28;20201;-57
2022/04/24 01:12:32;;;;;;;0.30;0.30;;;;;;;;;;5050295;28;20225;-56
2022/04/24 01:15:19;;;;;;;0.30;0.20;;;;;;;;;;5051480;28;20771;-56
2022/04/24 01:18:07;;;;;;;0.30;0.30;;;;;;;;;;5052850;28;20214;-56
2022/04/24 01:20:55;;;;;;;0.20;0.20;;;;;;;;;;5058289;28;20315;-57
2022/04/24 01:23:43;;;;;;;0.20;0.20;;;;;;;;;;5051954;28;20580;-57
2022/04/24 01:26:30;;;;;;;0.20;0.20;;;;;;;;;;5049664;28;20220;-57
2022/04/24 01:29:17;;;;;;;0.20;0.20;;;;;;;;;;5051640;28;20212;-57
2022/04/24 01:32:06;;;;;;;0.20;0.20;;;;;;;;;;5053859;28;20314;-56
2022/04/24 01:34:52;;;;;;;0.30;0.30;;;;;;;;;;5052823;28;20245;-57
2022/04/24 01:37:44;;;;;;;0.40;0.27;;;;;;;;;;5049933;28;20307;-57
2022/04/24 01:40:30;;;;;;;0.47;0.47;;;;;;;;;;5049696;28;20697;-57
2022/04/24 01:43:17;;;;;;;0.40;0.40;;;;;;;;;;5048720;28;20291;-57
2022/04/24 01:46:05;;;;;;;0.30;0.30;;;;;;;;;;5049935;28;20318;-57
2022/04/24 01:48:52;;;;;;;0.30;0.30;;;;;;;;;;5050115;28;20576;-73
2022/04/24 01:51:39;;;;;;;0.20;0.20;;;;;;;;;;5049679;28;20748;-57
2022/04/24 01:54:28;;;;;;;0.20;0.20;;;;;;;;;;5050108;28;20210;-57
2022/04/24 01:57:15;;;;;;;0.20;0.20;;;;;;;;;;5053749;28;20214;-57
2022/04/24 02:00:02;;;;;;;0.30;0.30;;;;;;;;;;5052013;28;20311;-57
2022/04/24 02:02:49;;;;;;;0.10;0.10;;;;;;;;;;5051971;28;20307;-56
2022/04/24 02:05:36;;;;;;;0.20;0.20;;;;;;;;;;5050164;28;20228;-56
2022/04/24 02:08:23;;;;;;;0.17;0.17;;;;;;;;;;5048709;28;20347;-57
2022/04/24 02:11:11;;;;;;;0.30;0.20;;;;;;;;;;5046265;28;20485;-57
2022/04/24 02:13:58;;;;;;;0.20;0.20;;;;;;;;;;5054641;28;20242;-57
2022/04/24 02:16:45;;;;;;;0.30;0.30;;;;;;;;;;5050023;28;20241;-56
2022/04/24 02:19:32;;;;;;;0.27;0.27;;;;;;;;;;5052164;28;20287;-56
2022/04/24 02:22:20;;;;;;;0.20;0.20;;;;;;;;;;5051244;28;20387;-57
2022/04/24 02:25:08;;;;;;;0.23;0.23;;;;;;;;;;5049446;28;20670;-57
2022/04/24 02:27:58;;;;;;;0.40;0.40;;;;;;;;;;5053429;28;20266;-57
2022/04/24 02:30:44;;;;;;;0.23;0.23;;;;;;;;;;5048537;28;20289;-58
2022/04/24 02:33:31;;;;;;;0.30;0.30;;;;;;;;;;5052893;28;20626;-57
2022/04/24 02:36:18;;;;;;;0.83;0.30;;;;;;;;;;5047722;28;20218;-57
2022/04/24 02:39:05;;;;;;;0.30;0.30;;;;;;;;;;5049546;28;20631;-57
2022/04/24 02:41:52;;;;;;;0.17;0.17;;;;;;;;;;5055417;28;20718;-57
2022/04/24 02:44:40;;;;;;;0.20;0.20;;;;;;;;;;5050430;28;20789;-57
2022/04/24 02:47:27;;;;;;;0.20;0.20;;;;;;;;;;5048625;28;20346;-57
2022/04/24 02:50:15;;;;;;;0.27;0.27;;;;;;;;;;5050200;28;20271;-57
2022/04/24 02:53:02;;;;;;;1.23;0.30;;;;;;;;;;5049768;28;20312;-57
2022/04/24 02:55:49;;;;;;;0.43;0.30;;;;;;;;;;5052405;28;20299;-57
2022/04/24 02:58:38;;;;;;;0.20;0.20;;;;;;;;;;5049440;28;20301;-57
2022/04/24 03:01:26;;;;;;;0.20;0.20;;;;;;;;;;5055264;28;20239;-57
2022/04/24 03:04:14;;;;;;;0.20;0.20;;;;;;;;;;5050512;28;20218;-57
2022/04/24 03:07:01;;;;;;;0.30;0.30;;;;;;;;;;5048914;28;20217;-57
2022/04/24 03:09:48;;;;;;;0.20;0.20;;;;;;;;;;5050979;28;20347;-57
2022/04/24 03:12:35;;;;;;;0.20;0.20;;;;;;;;;;5048891;28;20241;-57
2022/04/24 03:15:22;;;;;;;0.20;0.20;;;;;;;;;;5053033;28;20225;-56
2022/04/24 03:18:10;;;;;;;0.33;0.30;;;;;;;;;;5050385;28;20290;-56
2022/04/24 03:20:57;;;;;;;0.20;0.20;;;;;;;;;;5049028;28;20707;-57
2022/04/24 03:23:44;;;;;;;1.37;0.30;;;;;;;;;;5050713;28;20218;-57
2022/04/24 03:26:31;;;;;;;0.23;0.20;;;;;;;;;;5055750;28;20629;-57
2022/04/24 03:29:18;;;;;;;0.30;0.30;;;;;;;;;;5048050;28;20228;-57
2022/04/24 03:32:06;;;;;;;0.20;0.20;;;;;;;;;;5049239;28;20259;-57
2022/04/24 03:34:54;;;;;;;0.30;0.30;;;;;;;;;;5049136;28;20256;-57
2022/04/24 03:37:42;;;;;;;0.27;0.20;;;;;;;;;;5047592;28;20340;-56
2022/04/24 03:40:29;;;;;;;0.20;0.20;;;;;;;;;;5048387;28;20660;-57
2022/04/24 03:43:16;;;;;;;0.30;0.30;;;;;;;;;;5051397;28;20300;-57
2022/04/24 03:46:03;;;;;;;0.30;0.30;;;;;;;;;;5050561;28;20673;-57
2022/04/24 03:48:50;;;;;;;0.30;0.30;;;;;;;;;;5048599;28;20211;-57
2022/04/24 03:51:39;;;;;;;0.20;0.20;;;;;;;;;;5062669;28;20275;-57
2022/04/24 03:54:25;;;;;;;0.43;0.30;;;;;;;;;;5049379;28;20367;-56
2022/04/24 03:57:13;;;;;;;0.20;0.20;;;;;;;;;;5051300;28;20210;-57
2022/04/24 04:00:00;;;;;;;0.20;0.20;;;;;;;;;;5051964;28;20214;-57
2022/04/24 04:02:48;;;;;;;0.27;0.27;;;;;;;;;;5054554;28;20320;-57
2022/04/24 04:05:37;;;;;;;0.30;0.30;;;;;;;;;;5057632;28;20269;-57
2022/04/24 04:08:25;;;;;;;0.27;0.27;;;;;;;;;;5054599;28;20283;-57
2022/04/24 04:11:12;;;;;;;0.20;0.20;;;;;;;;;;5057920;28;20304;-57
2022/04/24 04:13:59;;;;;;;0.40;0.40;;;;;;;;;;5055693;28;20232;-57
2022/04/24 04:16:46;;;;;;;0.40;0.40;;;;;;;;;;5052175;28;20250;-57
2022/04/24 04:19:33;;;;;;;0.20;0.20;;;;;;;;;;5051567;28;20203;-57
2022/04/24 04:22:20;;;;;;;0.30;0.30;;;;;;;;;;5053839;28;20377;-57
2022/04/24 04:25:09;;;;;;;0.30;0.30;;;;;;;;;;5056021;28;20335;-57
2022/04/24 04:27:56;;;;;;;0.30;0.20;;;;;;;;;;5057282;28;20211;-57
2022/04/24 04:30:43;;;;;;;0.20;0.20;;;;;;;;;;5050674;28;20660;-57
2022/04/24 04:33:30;;;;;;;0.23;0.23;;;;;;;;;;5056690;28;20214;-57
2022/04/24 04:36:17;;;;;;;0.33;0.33;;;;;;;;;;5051333;28;20215;-57
2022/04/24 04:39:04;;;;;;;0.30;0.30;;;;;;;;;;5055575;28;20384;-57
2022/04/24 04:41:52;;;;;;;0.30;0.30;;;;;;;;;;5050434;28;20559;-57
2022/04/24 04:44:39;;;;;;;0.37;0.37;;;;;;;;;;5053269;28;20219;-64
2022/04/24 04:47:26;;;;;;;0.20;0.20;;;;;;;;;;5057923;28;20699;-56
2022/04/24 04:50:13;;;;;;;0.27;0.27;;;;;;;;;;5050444;28;20683;-57
2022/04/24 04:53:00;;;;;;;0.20;0.20;;;;;;;;;;5051224;28;20608;-56
2022/04/24 04:55:47;;;;;;;0.40;0.40;;;;;;;;;;5053130;28;20253;-57
2022/04/24 04:58:35;;;;;;;1.80;0.40;;;;;;;;;;5050974;28;20196;-57
2022/04/24 05:01:22;;;;;;;0.30;0.30;;;;;;;;;;5051776;28;20241;-57
2022/04/24 05:04:09;;;;;;;0.40;0.40;;;;;;;;;;5053391;28;20211;-57
2022/04/24 05:06:56;;;;;;;0.40;0.20;;;;;;;;;;5051621;28;20354;-57
2022/04/24 05:09:43;;;;;;;0.73;0.40;;;;;;;;;;5051034;28;20237;-56
2022/04/24 05:12:31;;;;;;;0.30;0.30;;;;;;;;;;5050737;28;20327;-57
2022/04/24 05:15:21;;;;;;;0.30;0.30;;;;;;;;;;5052250;28;20246;-57
2022/04/24 05:18:08;;;;;;;0.30;0.30;;;;;;;;;;5051605;28;20699;-57
2022/04/24 05:20:56;;;;;;;0.30;0.30;;;;;;;;;;5050607;28;20237;-57
2022/04/24 05:23:45;;;;;;;0.23;0.23;;;;;;;;;;5056760;28;20315;-57
2022/04/24 05:26:32;;;;;;;0.20;0.20;;;;;;;;;;5052885;28;20216;-57
2022/04/24 05:29:19;;;;;;;0.67;0.33;;;;;;;;;;5051640;28;20298;-73
2022/04/24 05:32:08;;;;;;;0.30;0.30;;;;;;;;;;5049239;28;20281;-58
2022/04/24 05:34:55;;;;;;;0.30;0.30;;;;;;;;;;5052484;28;20216;-58
2022/04/24 05:37:42;;;;;;;0.43;0.30;;;;;;;;;;5048526;28;20343;-57
2022/04/24 05:40:29;;;;;;;0.20;0.20;;;;;;;;;;5052327;28;20324;-57
2022/04/24 05:43:16;;;;;;;0.30;0.30;;;;;;;;;;5049086;28;20318;-57
2022/04/24 05:46:03;;;;;;;0.20;0.20;;;;;;;;;;5049685;28;20273;-57
2022/04/24 05:48:51;;;;;;;0.30;0.30;;;;;;;;;;5051759;28;20284;-57
2022/04/24 05:51:38;;;;;;;0.30;0.30;;;;;;;;;;5051519;28;20241;-54
2022/04/24 05:54:26;;;;;;;0.27;0.20;;;;;;;;;;5050129;28;20252;-55
2022/04/24 05:57:13;;;;;;;0.40;0.30;;;;;;;;;;5053232;28;20575;-55
2022/04/24 06:00:00;;;;;;;0.30;0.30;;;;;;;;;;5048469;28;20208;-55
2022/04/24 06:02:47;;;;;;;0.30;0.30;;;;;;;;;;5052367;28;20316;-55
2022/04/24 06:05:35;;;;;;;0.40;0.40;;;;;;;;;;5056304;28;20218;-55
2022/04/24 06:08:22;;;;;;;0.20;0.20;;;;;;;;;;5050050;28;20267;-55
2022/04/24 06:11:09;;;;;;;0.30;0.30;;;;;;;;;;5048896;28;20351;-55
2022/04/24 06:13:56;;;;;;;0.25;0.25;;;;;;;;;;5049427;28;20292;-56
2022/04/24 06:16:43;;;;;;;0.17;0.17;;;;;;;;;;5050526;28;20352;-55
2022/04/24 06:19:30;;;;;;;1.90;0.35;;;;;;;;;;5054685;28;20210;-55
2022/04/24 06:22:19;;;;;;;0.32;0.32;;;;;;;;;;5049064;28;20214;-55
2022/04/24 06:25:06;;;;;;;0.30;0.30;;;;;;;;;;5048884;28;20293;-55
2022/04/24 06:27:54;;;;;;;0.68;0.30;;;;;;;;;;5050561;28;20874;-56
2022/04/24 06:30:41;;;;;;;0.35;0.35;;;;;;;;;;5053824;28;20297;-57
2022/04/24 06:33:28;;;;;;;0.20;0.20;;;;;;;;;;5049726;28;20341;-56
2022/04/24 06:36:15;;;;;;;0.20;0.20;;;;;;;;;;5049029;28;20582;-56
2022/04/24 06:39:03;;;;;;;0.25;0.25;;;;;;;;;;5048707;28;20264;-56
2022/04/24 06:41:50;;;;;;;0.28;0.28;;;;;;;;;;5048662;28;20691;-56
2022/04/24 06:44:37;;;;;;;0.28;0.28;;;;;;;;;;5053490;28;20483;-56
2022/04/24 06:47:27;;;;;;;0.30;0.30;;;;;;;;;;5051153;28;20676;-55
2022/04/24 06:50:14;;;;;;;0.40;0.40;;;;;;;;;;5050635;28;20585;-55
2022/04/24 06:53:01;;;;;;;0.20;0.20;;;;;;;;;;5048662;28;20306;-55
2022/04/24 06:55:50;;;;;;;0.32;0.32;;;;;;;;;;5048063;28;20285;-56
2022/04/24 06:58:37;;;;;;;0.20;0.20;;;;;;;;;;5049223;28;20212;-55
2022/04/24 07:01:25;;;;;;;0.30;0.30;;;;;;;;;;5048303;28;20208;-55
2022/04/24 07:04:12;;;;;;;2.05;0.30;;;;;;;;;;5049261;28;20519;-55
2022/04/24 07:06:59;;;;;;;0.30;0.30;;;;;;;;;;5048271;28;20490;-54
2022/04/24 07:09:46;;;;;;;0.30;0.30;;;;;;;;;;5048930;28;20298;-55
2022/04/24 07:12:44;;;;;;;0.20;0.20;;;;;;;;;;5049741;28;20254;-55
2022/04/24 07:15:33;;;;;;;0.30;0.30;;;;;;;;;;5047587;28;20226;-56
2022/04/24 07:18:20;;;;;;;0.35;0.35;;;;;;;;;;5049906;28;20218;-55
2022/04/24 07:21:07;;;;;;;0.30;0.30;;;;;;;;;;5049828;28;20732;-55
2022/04/24 07:23:54;;;;;;;0.40;0.40;;;;;;;;;;5047435;28;20235;-56
2022/04/24 07:26:41;;;;;;;0.45;0.30;;;;;;;;;;5052022;28;20722;-56
2022/04/24 07:29:29;;;;;;;0.40;0.40;;;;;;;;;;5048827;28;20313;-56
2022/04/24 07:32:17;;;;;;;0.30;0.30;;;;;;;;;;5049898;28;20675;-57
2022/04/24 07:35:04;;;;;;;0.40;0.40;;;;;;;;;;5049117;28;20204;-56
2022/04/24 07:37:51;;;;;;;0.30;0.30;;;;;;;;;;5048112;28;20251;-57
2022/04/24 07:40:40;;;;;;;0.30;0.30;;;;;;;;;;5049320;28;20314;-57
2022/04/24 07:43:27;;;;;;;0.40;0.40;;;;;;;;;;5047349;28;20231;-56
2022/04/24 07:46:16;;;;;;;0.47;0.47;;;;;;;;;;5050824;28;20588;-56
2022/04/24 07:49:03;;;;;;;0.30;0.30;;;;;;;;;;5046601;28;20614;-56
2022/04/24 07:51:49;;;;;;;0.30;0.30;;;;;;;;;;5051043;28;20284;-57
2022/04/24 07:54:36;;;;;;;0.40;0.40;;;;;;;;;;5050967;28;20294;-57
2022/04/24 07:57:23;;;;;;;0.32;0.32;;;;;;;;;;5046843;28;20295;-57
2022/04/24 08:00:11;;;;;;;0.50;0.50;;;;;;;;;;5048750;28;20278;-56
2022/04/24 08:03:01;;;;;;;0.30;0.30;;;;;;;;;;5046369;28;20323;-57
2022/04/24 08:05:49;;;;;;;0.43;0.30;;;;;;;;;;5047702;28;20342;-56
2022/04/24 08:08:36;;;;;;;0.45;0.43;;;;;;;;;;5050834;28;20692;-56
2022/04/24 08:11:23;;;;;;;0.40;0.40;;;;;;;;;;5051552;28;20208;-56
2022/04/24 08:14:10;;;;;;;0.43;0.40;;;;;;;;;;5046660;28;20741;-55
2022/04/24 08:16:57;;;;;;;0.38;0.38;;;;;;;;;;5046509;28;20214;-55
2022/04/24 08:19:45;;;;;;;0.35;0.35;;;;;;;;;;5046782;28;20287;-56
2022/04/24 08:22:40;;;;;;;0.32;0.32;;;;;;;;;;5047045;28;20291;-54
2022/04/24 08:25:28;;;;;;;0.65;0.30;;;;;;;;;;5047703;28;20219;-53
2022/04/24 08:28:16;;;;;;;0.40;0.40;;;;;;;;;;5051410;28;20259;-54
2022/04/24 08:31:03;;;;;;;0.93;0.60;;;;;;;;;;5047257;28;20619;-54
2022/04/24 08:33:52;;;;;;;0.50;0.50;;;;;;;;;;5047488;28;20293;-54
2022/04/24 08:36:40;;;;;;;0.40;0.40;;;;;;;;;;5047602;28;20208;-54
2022/04/24 08:39:32;;;;;;;0.50;0.50;;;;;;;;;;5046823;28;20703;-54
2022/04/24 08:42:21;;;;;;;0.85;0.55;;;;;;;;;;5049397;28;20211;-54
2022/04/24 08:45:11;;;;;;;0.50;0.50;;;;;;;;;;5052298;28;20750;-54
2022/04/24 08:47:59;;;;;;;0.50;0.50;;;;;;;;;;5061285;28;20684;-54
2022/04/24 08:50:46;;;;;;;0.55;0.55;;;;;;;;;;5050262;28;20337;-54
2022/04/24 08:53:35;;;;;;;0.45;0.45;;;;;;;;;;5051286;28;20374;-53
2022/04/24 08:56:22;;;;;;;0.57;0.57;;;;;;;;;;5052750;28;20859;-54
2022/04/24 08:59:09;;;;;;;0.60;0.60;;;;;;;;;;5052496;28;20282;-54
2022/04/24 09:01:59;;;;;;;0.50;0.50;;;;;;;;;;5050170;28;20742;-54
2022/04/24 09:04:46;;;;;;;0.93;0.70;;;;;;;;;;5048807;28;20235;-55
2022/04/24 09:07:34;;;;;;;0.60;0.60;;;;;;;;;;5050324;28;20577;-54
2022/04/24 09:10:22;;;;;;;0.70;0.70;;;;;;;;;;5055840;28;20212;-55
2022/04/24 09:13:10;;;;;;;0.50;0.50;;;;;;;;;;5050187;28;20818;-54
2022/04/24 09:15:58;;;;;;;0.80;0.80;;;;;;;;;;5049714;28;20251;-54
2022/04/24 09:18:46;;;;;;;0.60;0.60;;;;;;;;;;5053701;28;20244;-56
2022/04/24 09:21:33;;;;;;;0.55;0.55;;;;;;;;;;5058220;28;20207;-56
2022/04/24 09:24:20;;;;;;;0.70;0.70;;;;;;;;;;5050816;28;20598;-57
2022/04/24 09:27:09;;;;;;;0.55;0.55;;;;;;;;;;5051785;28;20724;-57
2022/04/24 09:29:59;;;;;;;0.47;0.47;;;;;;;;;;5048786;28;20230;-57
2022/04/24 09:32:48;;;;;;;0.68;0.68;;;;;;;;;;5051671;28;20287;-56
2022/04/24 09:35:37;;;;;;;0.88;0.70;;;;;;;;;;5050915;28;20216;-57
2022/04/24 09:38:23;;;;;;;0.68;0.50;;;;;;;;;;5054730;28;20281;-57
2022/04/24 09:41:17;;;;;;;0.70;0.70;;;;;;;;;;5049046;28;20700;-56
2022/04/24 09:44:14;;;;;;;0.60;0.60;;;;;;;;;;5051025;28;20393;-56
2022/04/24 09:47:01;;;;;;;1.02;0.73;;;;;;;;;;5051889;28;20238;-56
2022/04/24 09:49:50;;;;;;;0.60;0.60;;;;;;;;;;5049452;28;20211;-56
2022/04/24 09:52:45;;;;;;;0.70;0.70;;;;;;;;;;5050379;28;20231;-56
2022/04/24 09:55:32;;;;;;;0.50;0.50;;;;;;;;;;5048287;28;20211;-56
2022/04/24 09:58:21;;;;;;;1.77;0.80;;;;;;;;;;5053109;28;20198;-56
2022/04/24 10:01:10;;;;;;;1.00;0.70;;;;;;;;;;5062376;28;20200;-56
2022/04/24 10:03:57;;;;;;;1.83;0.90;;;;;;;;;;5050673;28;20312;-56
2022/04/24 10:06:45;;;;;;;0.47;0.47;;;;;;;;;;5048943;28;20215;-56
2022/04/24 10:09:34;;;;;;;0.60;0.60;;;;;;;;;;5047855;28;20576;-56
2022/04/24 10:12:23;;;;;;;0.70;0.70;;;;;;;;;;5050025;28;20239;-56
2022/04/24 10:15:14;;;;;;;0.60;0.60;;;;;;;;;;5053149;28;20217;-56
2022/04/24 10:18:21;;;;;;;1.05;0.60;;;;;;;;;;5050587;28;20624;-56
2022/04/24 10:21:24;;;;;;;0.70;0.70;;;;;;;;;;5049951;28;20295;-56
2022/04/24 10:24:13;;;;;;;0.70;0.70;;;;;;;;;;5049722;28;20726;-56
2022/04/24 10:27:03;;;;;;;0.65;0.65;;;;;;;;;;5051248;28;20283;-55
2022/04/24 10:29:52;;;;;;;0.60;0.60;;;;;;;;;;5048140;28;20211;-57
2022/04/24 10:32:39;;;;;;;0.63;0.63;;;;;;;;;;5048548;28;20291;-57
2022/04/24 10:35:27;;;;;;;0.70;0.70;;;;;;;;;;5052578;28;20207;-56
2022/04/24 10:38:14;;;;;;;0.65;0.65;;;;;;;;;;5049679;28;20297;-56
2022/04/24 10:41:03;;;;;;;0.73;0.73;;;;;;;;;;5048466;28;20289;-56
2022/04/24 10:43:52;;;;;;;0.80;0.80;;;;;;;;;;5047224;28;20243;-56
2022/04/24 10:46:40;;;;;;;1.30;0.60;;;;;;;;;;5051519;28;20241;-56
2022/04/24 10:49:35;;;;;;;1.08;0.70;;;;;;;;;;5048512;28;20241;-56
2022/04/24 10:52:23;;;;;;;1.15;1.05;;;;;;;;;;5048177;28;20238;-56
2022/04/24 10:55:13;;;;;;;1.10;1.10;;;;;;;;;;5045906;28;20215;-56
2022/04/24 10:58:02;;;;;;;1.02;1.00;;;;;;;;;;5049810;28;20217;-55
2022/04/24 11:00:49;;;;;;;0.93;0.90;;;;;;;;;;5050139;28;20681;-56
2022/04/24 11:03:40;;;;;;;0.90;0.90;;;;;;;;;;5047732;28;20250;-57
2022/04/24 11:06:27;;;;;;;1.02;1.02;;;;;;;;;;5048587;28;20622;-56
2022/04/24 11:09:19;;;;;;;1.45;1.35;;;;;;;;;;5047388;28;20581;-60
2022/04/24 11:12:08;;;;;;;1.10;1.10;;;;;;;;;;5050627;28;20674;-56
2022/04/24 11:14:55;;;;;;;1.00;1.00;;;;;;;;;;5052270;28;20211;-57
2022/04/24 11:17:42;;;;;;;1.20;1.10;;;;;;;;;;5051198;28;20246;-57
2022/04/24 11:20:31;;;;;;;0.90;0.90;;;;;;;;;;5048796;28;20209;-56
2022/04/24 11:23:19;;;;;;;1.10;1.10;;;;;;;;;;5047178;28;20217;-56
2022/04/24 11:26:09;;;;;;;1.00;1.00;;;;;;;;;;5050433;28;20265;-56
2022/04/24 11:28:56;;;;;;;1.10;1.10;;;;;;;;;;5049512;28;20206;-56
2022/04/24 11:31:51;;;;;;;1.13;1.13;;;;;;;;;;5048474;28;20330;-56
2022/04/24 11:34:38;;;;;;;1.40;1.10;;;;;;;;;;5049549;28;20207;-56
2022/04/24 11:37:25;;;;;;;0.95;0.95;;;;;;;;;;5047318;28;20211;-55
2022/04/24 11:40:13;;;;;;;1.08;1.08;;;;;;;;;;5048542;28;20203;-56
2022/04/24 11:43:05;;;;;;;0.98;0.98;;;;;;;;;;5054536;28;20286;-56
2022/04/24 11:52:02;;;;;;;1.00;1.00;;;;;;;;;;5053395;28;20320;-56
2022/04/24 11:54:51;;;;;;;0.75;0.75;;;;;;;;;;5057162;28;20207;-56
2022/04/24 11:57:38;;;;;;;0.77;0.77;;;;;;;;;;5047124;28;20234;-56
2022/04/24 12:00:35;;;;;;;0.90;0.90;;;;;;;;;;5048391;28;20297;-56
2022/04/24 12:03:23;;;;;;;1.35;1.10;;;;;;;;;;5046391;28;20216;-56
2022/04/24 12:06:11;;;;;;;0.90;0.90;;;;;;;;;;5047239;28;20210;-55
2022/04/24 12:08:58;;;;;;;0.87;0.87;;;;;;;;;;5048983;28;20221;-56
2022/04/24 12:11:44;;;;;;;1.70;0.97;;;;;;;;;;5051385;28;20309;-57
2022/04/24 12:14:31;;;;;;;0.70;0.70;;;;;;;;;;5052485;28;20232;-56
2022/04/24 12:17:22;;;;;;;1.30;1.10;;;;;;;;;;5050423;28;20208;-56
2022/04/24 12:20:09;;;;;;;0.70;0.70;;;;;;;;;;5052484;28;20623;-56
2022/04/24 12:22:56;;;;;;;0.80;0.80;;;;;;;;;;5051112;28;20215;-56
2022/04/24 12:25:48;;;;;;;1.47;0.87;;;;;;;;;;5055185;28;20325;-56
2022/04/24 12:28:39;;;;;;;0.70;0.70;;;;;;;;;;5053363;28;20587;-56
2022/04/24 12:31:28;;;;;;;0.93;0.93;;;;;;;;;;5051078;28;20611;-56
2022/04/24 12:34:16;;;;;;;0.67;0.67;;;;;;;;;;5051519;28;20376;-56
2022/04/24 12:37:03;;;;;;;0.60;0.60;;;;;;;;;;5049618;28;20304;-56
2022/04/24 12:39:53;;;;;;;0.80;0.80;;;;;;;;;;5054309;28;20366;-56
2022/04/24 12:42:51;;;;;;;0.87;0.87;;;;;;;;;;5055856;28;20236;-56
2022/04/24 12:45:38;;;;;;;0.70;0.70;;;;;;;;;;5049860;28;20323;-56
2022/04/24 12:48:25;;;;;;;0.90;0.90;;;;;;;;;;5050574;28;20670;-56
2022/04/24 12:51:14;;;;;;;1.10;1.10;;;;;;;;;;5049860;28;20235;-57
2022/04/24 12:54:03;;;;;;;1.30;1.20;;;;;;;;;;5053541;28;20305;-57
2022/04/24 12:56:50;;;;;;;1.47;1.47;;;;;;;;;;5053828;28;20285;-55
2022/04/24 12:59:39;;;;;;;1.23;1.23;;;;;;;;;;5050518;28;20262;-56
2022/04/24 13:02:27;;;;;;;1.50;1.40;;;;;;;;;;5050634;28;20215;-56
2022/04/24 13:05:14;;;;;;;1.30;1.30;;;;;;;;;;5049841;28;20238;-56
2022/04/24 13:08:02;;;;;;;1.47;1.47;;;;;;;;;;5055956;28;20215;-56
2022/04/24 13:10:49;;;;;;;2.30;1.80;;;;;;;;;;5049343;28;20605;-57
2022/04/24 13:13:36;;;;;;;1.50;1.40;;;;;;;;;;5051520;28;20297;-56
2022/04/24 13:19:28;;;;;;;1.87;1.77;;;;;;;;;;5055367;28;20213;-56
2022/04/24 13:22:16;;;;;;;1.80;1.70;;;;;;;;;;5047559;28;20216;-57
2022/04/24 13:25:06;;;;;;;1.80;1.73;;;;;;;;;;5052882;28;20227;-56
2022/04/24 13:27:53;;;;;;;5.93;5.53;;;;;;;;;;5051848;28;20234;-56
2022/04/24 13:30:40;;;;;;;15.30;13.67;;;;;;;;;;5049632;28;20210;-55
2022/04/24 13:33:29;;;;;;;13.00;11.70;;;;;;;;;;5054238;28;20218;-57
2022/04/24 13:36:16;;;;;;;30.43;27.13;;;;;;;;;;5054047;28;20303;-56
2022/04/24 13:39:05;;;;;;;25.77;23.07;;;;;;;;;;5055457;28;20791;-55
2022/04/24 13:41:53;;;;;;;15.00;13.53;;;;;;;;;;5051485;28;20213;-56
2022/04/24 13:44:40;;;;;;;18.73;16.80;;;;;;;;;;5052516;28;20300;-56
2022/04/24 13:47:27;;;;;;;18.63;16.33;;;;;;;;;;5031879;28;20218;-56
2022/04/24 13:50:14;;;;;;;19.03;16.67;;;;;;;;;;5030930;28;20290;-55
2022/04/24 13:53:01;;;;;;;17.47;15.70;;;;;;;;;;5029920;28;20265;-56
2022/04/24 13:55:48;;;;;;;16.70;15.00;;;;;;;;;;5033589;28;20239;-56
2022/04/24 13:58:36;;;;;;;16.73;15.07;;;;;;;;;;5030390;28;20267;-55
2022/04/24 14:01:24;;;;;;;16.83;15.23;;;;;;;;;;5031705;28;20241;-56
2022/04/24 14:04:11;;;;;;;14.97;13.47;;;;;;;;;;5033890;28;20209;-56
2022/04/24 14:06:58;;;;;;;13.53;12.20;;;;;;;;;;5034594;28;20310;-56
2022/04/24 14:09:47;;;;;;;13.43;12.13;;;;;;;;;;5027000;28;20265;-56
2022/04/24 14:12:34;;;;;;;12.20;11.00;;;;;;;;;;5034970;28;20557;-56
2022/04/24 14:15:26;;;;;;;10.97;9.87;;;;;;;;;;5030172;28;20248;-55
2022/04/24 14:18:13;;;;;;;11.67;10.47;;;;;;;;;;5032212;28;20283;-56
2022/04/24 14:21:00;;;;;;;9.73;8.83;;;;;;;;;;5029151;28;20297;-55
2022/04/24 14:23:47;;;;;;;10.47;9.47;;;;;;;;;;5029763;28;20238;-55
2022/04/24 14:26:35;;;;;;;9.73;8.83;;;;;;;;;;5028721;28;20371;-56
2022/04/24 14:29:22;;;;;;;9.10;8.30;;;;;;;;;;5030940;28;20214;-57
2022/04/24 14:32:12;;;;;;;8.03;7.33;;;;;;;;;;5030248;28;20294;-55
2022/04/24 14:34:59;;;;;;;7.40;6.80;;;;;;;;;;5028945;28;20205;-56
2022/04/24 14:37:46;;;;;;;7.50;6.90;;;;;;;;;;5030204;28;20290;-56
2022/04/24 14:40:33;;;;;;;8.10;7.40;;;;;;;;;;5029196;28;20597;-56
2022/04/24 14:43:20;;;;;;;6.50;6.00;;;;;;;;;;5029683;28;20215;-56
2022/04/24 14:58:29;;;;;;;5.07;4.67;;;;;;;;;;5049558;28;20241;-56
2022/04/24 15:01:16;;;;;;;4.70;4.37;;;;;;;;;;5050810;28;20698;-55
2022/04/24 15:04:03;;;;;;;4.53;4.23;;;;;;;;;;5047474;28;20294;-56
2022/04/24 15:06:51;;;;;;;4.40;4.10;;;;;;;;;;5047592;28;20228;-56
2022/04/24 15:09:38;;;;;;;3.83;3.57;;;;;;;;;;5050576;28;20326;-55
2022/04/24 15:12:25;;;;;;;3.47;3.27;;;;;;;;;;5054028;28;20688;-56
2022/04/24 15:15:13;;;;;;;3.77;3.47;;;;;;;;;;5047888;28;20209;-56
2022/04/24 15:18:00;;;;;;;3.20;3.00;;;;;;;;;;5052281;28;20243;-55
2022/04/24 15:20:47;;;;;;;3.20;3.00;;;;;;;;;;5051330;28;20290;-57
2022/04/24 15:23:36;;;;;;;3.20;3.00;;;;;;;;;;5046694;28;20860;-56
2022/04/24 15:26:26;;;;;;;3.30;3.10;;;;;;;;;;5056266;28;20645;-55
2022/04/24 15:29:14;;;;;;;3.10;2.90;;;;;;;;;;5045692;28;20756;-56
2022/04/24 15:32:04;;;;;;;2.93;2.73;;;;;;;;;;5050184;28;20332;-56
2022/04/24 15:34:51;;;;;;;2.60;2.50;;;;;;;;;;5049273;28;20211;-57
2022/04/24 15:37:38;;;;;;;2.30;2.20;;;;;;;;;;5051233;28;20258;-57
2022/04/24 15:40:27;;;;;;;2.37;2.27;;;;;;;;;;5051752;28;20696;-56
2022/04/24 15:43:14;;;;;;;2.40;2.30;;;;;;;;;;5048814;28;20298;-56
2022/04/24 15:46:01;;;;;;;2.47;2.37;;;;;;;;;;5047323;28;20248;-57
2022/04/24 15:48:47;;;;;;;2.40;2.30;;;;;;;;;;5050079;28;20236;-56
2022/04/24 15:51:34;;;;;;;2.17;2.07;;;;;;;;;;5052835;28;20299;-57
2022/04/24 15:54:21;;;;;;;2.37;1.97;;;;;;;;;;5055637;28;21041;-56
2022/04/24 15:57:10;;;;;;;2.80;2.60;;;;;;;;;;5057011;28;20338;-56
2022/04/24 15:59:57;;;;;;;2.60;2.50;;;;;;;;;;5053010;28;20757;-57
2022/04/24 16:02:43;;;;;;;2.57;2.47;;;;;;;;;;5057813;28;20572;-56
2022/04/24 16:05:31;;;;;;;2.13;2.03;;;;;;;;;;5056574;28;20807;-56
2022/04/24 16:08:20;;;;;;;2.70;2.50;;;;;;;;;;5054813;28;20556;-57
2022/04/24 16:11:07;;;;;;;2.50;2.40;;;;;;;;;;5064698;28;20348;-56
2022/04/24 16:13:55;;;;;;;2.37;2.27;;;;;;;;;;5057300;28;20358;-56
2022/04/24 16:16:43;;;;;;;2.50;2.40;;;;;;;;;;5054929;28;20201;-56
2022/04/24 16:19:30;;;;;;;2.40;2.30;;;;;;;;;;5057364;28;20218;-56
2022/04/24 16:22:17;;;;;;;2.03;1.93;;;;;;;;;;5059820;28;20277;-57
2022/04/24 16:25:05;;;;;;;1.93;1.83;;;;;;;;;;5054827;28;20208;-56
2022/04/24 16:27:52;;;;;;;2.10;2.00;;;;;;;;;;5055413;28;20235;-56
2022/04/24 16:30:40;;;;;;;1.83;1.73;;;;;;;;;;5060501;28;20298;-56
2022/04/24 16:33:27;;;;;;;2.13;2.03;;;;;;;;;;5050670;28;20262;-56
2022/04/24 16:36:14;;;;;;;2.10;2.00;;;;;;;;;;5061324;28;20210;-56
2022/04/24 16:39:01;;;;;;;1.93;1.83;;;;;;;;;;5058919;28;20290;-56
2022/04/24 16:41:48;;;;;;;2.70;2.50;;;;;;;;;;5057806;28;20211;-56
2022/04/24 16:44:35;;;;;;;2.60;2.47;;;;;;;;;;5055630;28;20245;-56
2022/04/24 16:47:24;;;;;;;2.40;2.30;;;;;;;;;;5056569;28;20340;-56
2022/04/24 16:58:44;;;;;;;2.43;2.33;;;;;;;;;;5058161;28;20755;-56
2022/04/24 16:59:27;;;;;;;2.90;2.70;;;;;;;;;;5058798;28;20225;-56
2022/04/24 17:02:14;;;;;;;2.97;2.83;;;;;;;;;;5053555;28;20298;-56
2022/04/24 17:05:02;;;;;;;3.07;2.87;;;;;;;;;;5051487;28;20302;-56
2022/04/24 17:07:49;;;;;;;2.63;2.47;;;;;;;;;;5052377;28;20216;-56
2022/04/24 17:10:36;;;;;;;2.70;2.60;;;;;;;;;;5051894;28;20204;-57
2022/04/24 17:13:23;;;;;;;3.30;3.10;;;;;;;;;;5053698;28;20704;-56